sensor_id;sensor_type;location;lat;lon;timestamp;P1;durP1;ratioP1;P2;durP2;ratioP2
30743;SDS011;17486;46.738;7.622;2024-02-26T00:01:35;4.90;;;3.50;;
30743;SDS011;17486;46.738;7.622;2024-02-26T00:04:01;6.95;;;3.95;;
30743;SDS011;17486;46.738;7.622;2024-02-26T00:06:27;4.82;;;3.67;;
30743;SDS011;17486;46.738;7.622;2024-02-26T00:08:53;4.90;;;3.35;;
30743;SDS011;17486;46.738;7.622;2024-02-26T00:11:18;3.95;;;3.10;;
30743;SDS011;17486;46.738;7.622;2024-02-26T00:13:44;5.25;;;3.45;;
30743;SDS011;17486;46.738;7.622;2024-02-26T00:16:09;4.13;;;3.47;;
30743;SDS011;17486;46.738;7.622;2024-02-26T00:18:34;5.63;;;3.47;;
30743;SDS011;17486;46.738;7.622;2024-02-26T00:21:00;5.53;;;3.05;;
30743;SDS011;17486;46.738;7.622;2024-02-26T00:23:25;3.90;;;3.15;;
30743;SDS011;17486;46.738;7.622;2024-02-26T00:25:52;4.70;;;3.22;;
30743;SDS011;17486;46.738;7.622;2024-02-26T00:28:17;5.85;;;3.40;;
30743;SDS011;17486;46.738;7.622;2024-02-26T00:30:44;4.47;;;3.20;;
30743;SDS011;17486;46.738;7.622;2024-02-26T00:33:10;3.63;;;3.00;;
30743;SDS011;17486;46.738;7.622;2024-02-26T00:35:35;3.83;;;2.97;;
30743;SDS011;17486;46.738;7.622;2024-02-26T00:38:01;3.20;;;2.60;;
30743;SDS011;17486;46.738;7.622;2024-02-26T00:40:28;4.03;;;2.78;;
30743;SDS011;17486;46.738;7.622;2024-02-26T00:42:53;4.82;;;2.78;;
30743;SDS011;17486;46.738;7.622;2024-02-26T00:45:19;4.15;;;2.83;;
30743;SDS011;17486;46.738;7.622;2024-02-26T00:47:44;4.93;;;3.00;;
30743;SDS011;17486;46.738;7.622;2024-02-26T00:50:12;3.08;;;2.75;;
30743;SDS011;17486;46.738;7.622;2024-02-26T00:52:37;4.50;;;2.95;;
30743;SDS011;17486;46.738;7.622;2024-02-26T00:55:03;3.53;;;2.63;;
30743;SDS011;17486;46.738;7.622;2024-02-26T00:57:29;3.47;;;2.63;;
30743;SDS011;17486;46.738;7.622;2024-02-26T00:59:54;4.28;;;2.67;;
30743;SDS011;17486;46.738;7.622;2024-02-26T01:02:21;3.05;;;2.40;;
30743;SDS011;17486;46.738;7.622;2024-02-26T01:04:47;3.42;;;2.60;;
30743;SDS011;17486;46.738;7.622;2024-02-26T01:07:12;3.55;;;2.63;;
30743;SDS011;17486;46.738;7.622;2024-02-26T01:09:38;3.47;;;2.80;;
30743;SDS011;17486;46.738;7.622;2024-02-26T01:12:03;4.22;;;2.85;;
30743;SDS011;17486;46.738;7.622;2024-02-26T01:14:28;3.90;;;3.22;;
30743;SDS011;17486;46.738;7.622;2024-02-26T01:16:54;3.13;;;2.80;;
30743;SDS011;17486;46.738;7.622;2024-02-26T01:19:19;4.40;;;3.35;;
30743;SDS011;17486;46.738;7.622;2024-02-26T01:21:45;5.65;;;3.83;;
30743;SDS011;17486;46.738;7.622;2024-02-26T01:24:11;5.50;;;4.00;;
30743;SDS011;17486;46.738;7.622;2024-02-26T01:26:36;5.20;;;4.70;;
30743;SDS011;17486;46.738;7.622;2024-02-26T01:29:01;4.95;;;4.47;;
30743;SDS011;17486;46.738;7.622;2024-02-26T01:31:27;4.70;;;3.70;;
30743;SDS011;17486;46.738;7.622;2024-02-26T01:33:52;3.50;;;2.90;;
30743;SDS011;17486;46.738;7.622;2024-02-26T01:36:18;4.07;;;3.15;;
30743;SDS011;17486;46.738;7.622;2024-02-26T01:38:43;3.38;;;3.05;;
30743;SDS011;17486;46.738;7.622;2024-02-26T01:41:08;4.18;;;2.70;;
30743;SDS011;17486;46.738;7.622;2024-02-26T01:43:34;4.68;;;2.75;;
30743;SDS011;17486;46.738;7.622;2024-02-26T01:45:59;3.20;;;2.83;;
30743;SDS011;17486;46.738;7.622;2024-02-26T01:48:25;4.20;;;2.38;;
30743;SDS011;17486;46.738;7.622;2024-02-26T01:50:51;4.30;;;2.78;;
30743;SDS011;17486;46.738;7.622;2024-02-26T01:53:16;3.92;;;2.58;;
30743;SDS011;17486;46.738;7.622;2024-02-26T01:55:43;2.65;;;2.42;;
30743;SDS011;17486;46.738;7.622;2024-02-26T01:58:09;5.10;;;2.92;;
30743;SDS011;17486;46.738;7.622;2024-02-26T02:00:35;3.03;;;2.58;;
30743;SDS011;17486;46.738;7.622;2024-02-26T02:03:01;3.90;;;2.70;;
30743;SDS011;17486;46.738;7.622;2024-02-26T02:05:28;3.00;;;2.70;;
30743;SDS011;17486;46.738;7.622;2024-02-26T02:07:54;3.22;;;2.60;;
30743;SDS011;17486;46.738;7.622;2024-02-26T02:10:19;3.72;;;2.88;;
30743;SDS011;17486;46.738;7.622;2024-02-26T02:12:48;3.15;;;2.75;;
30743;SDS011;17486;46.738;7.622;2024-02-26T02:15:13;3.15;;;2.60;;
30743;SDS011;17486;46.738;7.622;2024-02-26T02:17:39;2.78;;;2.42;;
30743;SDS011;17486;46.738;7.622;2024-02-26T02:20:07;3.63;;;2.47;;
30743;SDS011;17486;46.738;7.622;2024-02-26T02:22:34;3.78;;;2.63;;
30743;SDS011;17486;46.738;7.622;2024-02-26T02:24:59;4.15;;;2.70;;
30743;SDS011;17486;46.738;7.622;2024-02-26T02:27:25;3.05;;;2.58;;
30743;SDS011;17486;46.738;7.622;2024-02-26T02:29:52;3.53;;;2.60;;
30743;SDS011;17486;46.738;7.622;2024-02-26T02:32:18;4.40;;;2.50;;
30743;SDS011;17486;46.738;7.622;2024-02-26T02:34:44;4.03;;;2.55;;
30743;SDS011;17486;46.738;7.622;2024-02-26T02:37:10;3.30;;;2.55;;
30743;SDS011;17486;46.738;7.622;2024-02-26T02:39:36;4.63;;;2.72;;
30743;SDS011;17486;46.738;7.622;2024-02-26T02:42:01;2.95;;;2.40;;
30743;SDS011;17486;46.738;7.622;2024-02-26T02:44:27;3.45;;;2.60;;
30743;SDS011;17486;46.738;7.622;2024-02-26T02:46:52;3.72;;;2.90;;
30743;SDS011;17486;46.738;7.622;2024-02-26T02:49:18;4.85;;;2.50;;
30743;SDS011;17486;46.738;7.622;2024-02-26T02:51:43;3.47;;;2.60;;
30743;SDS011;17486;46.738;7.622;2024-02-26T02:54:09;3.22;;;2.55;;
30743;SDS011;17486;46.738;7.622;2024-02-26T02:56:34;3.35;;;2.63;;
30743;SDS011;17486;46.738;7.622;2024-02-26T02:59:00;2.92;;;2.40;;
30743;SDS011;17486;46.738;7.622;2024-02-26T03:01:26;3.78;;;2.80;;
30743;SDS011;17486;46.738;7.622;2024-02-26T03:03:52;3.97;;;2.53;;
30743;SDS011;17486;46.738;7.622;2024-02-26T03:06:17;3.70;;;2.50;;
30743;SDS011;17486;46.738;7.622;2024-02-26T03:08:42;3.50;;;2.40;;
30743;SDS011;17486;46.738;7.622;2024-02-26T03:11:12;3.55;;;2.83;;
30743;SDS011;17486;46.738;7.622;2024-02-26T03:13:38;3.47;;;2.90;;
30743;SDS011;17486;46.738;7.622;2024-02-26T03:16:04;3.60;;;2.95;;
30743;SDS011;17486;46.738;7.622;2024-02-26T03:18:30;3.40;;;3.10;;
30743;SDS011;17486;46.738;7.622;2024-02-26T03:20:56;4.00;;;3.13;;
30743;SDS011;17486;46.738;7.622;2024-02-26T03:23:21;4.03;;;2.80;;
30743;SDS011;17486;46.738;7.622;2024-02-26T03:25:47;3.65;;;2.83;;
30743;SDS011;17486;46.738;7.622;2024-02-26T03:28:13;3.08;;;2.78;;
30743;SDS011;17486;46.738;7.622;2024-02-26T03:30:38;4.03;;;2.80;;
30743;SDS011;17486;46.738;7.622;2024-02-26T03:33:03;3.13;;;2.83;;
30743;SDS011;17486;46.738;7.622;2024-02-26T03:35:29;4.32;;;2.97;;
30743;SDS011;17486;46.738;7.622;2024-02-26T03:37:54;3.63;;;2.90;;
30743;SDS011;17486;46.738;7.622;2024-02-26T03:40:20;4.72;;;2.88;;
30743;SDS011;17486;46.738;7.622;2024-02-26T03:42:45;2.95;;;2.33;;
30743;SDS011;17486;46.738;7.622;2024-02-26T03:45:11;3.40;;;2.80;;
30743;SDS011;17486;46.738;7.622;2024-02-26T03:47:37;3.55;;;2.97;;
30743;SDS011;17486;46.738;7.622;2024-02-26T03:50:05;3.40;;;2.72;;
30743;SDS011;17486;46.738;7.622;2024-02-26T03:52:31;6.22;;;2.85;;
30743;SDS011;17486;46.738;7.622;2024-02-26T03:54:57;3.25;;;2.40;;
30743;SDS011;17486;46.738;7.622;2024-02-26T03:57:22;4.43;;;2.70;;
30743;SDS011;17486;46.738;7.622;2024-02-26T03:59:48;4.07;;;2.97;;
30743;SDS011;17486;46.738;7.622;2024-02-26T04:02:13;3.05;;;2.20;;
30743;SDS011;17486;46.738;7.622;2024-02-26T04:04:38;3.30;;;2.42;;
30743;SDS011;17486;46.738;7.622;2024-02-26T04:07:04;3.08;;;2.65;;
30743;SDS011;17486;46.738;7.622;2024-02-26T04:09:31;4.18;;;2.40;;
30743;SDS011;17486;46.738;7.622;2024-02-26T04:11:57;2.60;;;2.35;;
30743;SDS011;17486;46.738;7.622;2024-02-26T04:14:22;2.72;;;2.30;;
30743;SDS011;17486;46.738;7.622;2024-02-26T04:16:47;3.35;;;2.28;;
30743;SDS011;17486;46.738;7.622;2024-02-26T04:19:16;3.20;;;2.17;;
30743;SDS011;17486;46.738;7.622;2024-02-26T04:21:42;3.55;;;2.50;;
30743;SDS011;17486;46.738;7.622;2024-02-26T04:24:07;3.95;;;2.33;;
30743;SDS011;17486;46.738;7.622;2024-02-26T04:26:32;6.05;;;2.22;;
30743;SDS011;17486;46.738;7.622;2024-02-26T04:28:58;2.63;;;2.35;;
30743;SDS011;17486;46.738;7.622;2024-02-26T04:31:23;3.58;;;2.38;;
30743;SDS011;17486;46.738;7.622;2024-02-26T04:33:49;3.53;;;2.70;;
30743;SDS011;17486;46.738;7.622;2024-02-26T04:36:15;4.03;;;2.40;;
30743;SDS011;17486;46.738;7.622;2024-02-26T04:38:43;3.38;;;2.33;;
30743;SDS011;17486;46.738;7.622;2024-02-26T04:41:09;3.15;;;2.42;;
30743;SDS011;17486;46.738;7.622;2024-02-26T04:43:35;3.00;;;2.20;;
30743;SDS011;17486;46.738;7.622;2024-02-26T04:46:06;3.30;;;2.70;;
30743;SDS011;17486;46.738;7.622;2024-02-26T04:48:34;4.55;;;3.08;;
30743;SDS011;17486;46.738;7.622;2024-02-26T04:51:00;2.65;;;2.38;;
30743;SDS011;17486;46.738;7.622;2024-02-26T04:53:26;3.10;;;2.58;;
30743;SDS011;17486;46.738;7.622;2024-02-26T04:55:52;3.80;;;2.40;;
30743;SDS011;17486;46.738;7.622;2024-02-26T04:58:17;4.53;;;2.60;;
30743;SDS011;17486;46.738;7.622;2024-02-26T05:00:43;2.50;;;2.30;;
30743;SDS011;17486;46.738;7.622;2024-02-26T05:03:09;3.00;;;2.60;;
30743;SDS011;17486;46.738;7.622;2024-02-26T05:05:38;3.58;;;2.78;;
30743;SDS011;17486;46.738;7.622;2024-02-26T05:08:03;4.30;;;2.50;;
30743;SDS011;17486;46.738;7.622;2024-02-26T05:10:29;4.25;;;2.53;;
30743;SDS011;17486;46.738;7.622;2024-02-26T05:12:54;3.33;;;2.20;;
30743;SDS011;17486;46.738;7.622;2024-02-26T05:15:20;2.53;;;2.30;;
30743;SDS011;17486;46.738;7.622;2024-02-26T05:17:45;2.85;;;2.40;;
30743;SDS011;17486;46.738;7.622;2024-02-26T05:20:10;3.28;;;2.38;;
30743;SDS011;17486;46.738;7.622;2024-02-26T05:22:36;5.22;;;3.00;;
30743;SDS011;17486;46.738;7.622;2024-02-26T05:25:02;3.42;;;2.85;;
30743;SDS011;17486;46.738;7.622;2024-02-26T05:27:28;3.40;;;2.50;;
30743;SDS011;17486;46.738;7.622;2024-02-26T05:29:53;3.88;;;2.63;;
30743;SDS011;17486;46.738;7.622;2024-02-26T05:32:19;5.00;;;2.85;;
30743;SDS011;17486;46.738;7.622;2024-02-26T05:34:44;2.60;;;2.40;;
30743;SDS011;17486;46.738;7.622;2024-02-26T05:37:10;4.55;;;2.35;;
30743;SDS011;17486;46.738;7.622;2024-02-26T05:39:36;3.40;;;2.40;;
30743;SDS011;17486;46.738;7.622;2024-02-26T05:42:01;2.92;;;2.38;;
30743;SDS011;17486;46.738;7.622;2024-02-26T05:44:27;4.57;;;2.63;;
30743;SDS011;17486;46.738;7.622;2024-02-26T05:46:52;3.08;;;2.45;;
30743;SDS011;17486;46.738;7.622;2024-02-26T05:49:18;3.13;;;2.60;;
30743;SDS011;17486;46.738;7.622;2024-02-26T05:51:43;4.22;;;2.78;;
30743;SDS011;17486;46.738;7.622;2024-02-26T05:54:09;4.95;;;2.05;;
30743;SDS011;17486;46.738;7.622;2024-02-26T05:56:35;4.47;;;2.72;;
30743;SDS011;17486;46.738;7.622;2024-02-26T05:59:00;3.38;;;2.75;;
30743;SDS011;17486;46.738;7.622;2024-02-26T06:01:26;3.58;;;2.88;;
30743;SDS011;17486;46.738;7.622;2024-02-26T06:03:51;5.38;;;2.92;;
30743;SDS011;17486;46.738;7.622;2024-02-26T06:06:16;3.58;;;2.78;;
30743;SDS011;17486;46.738;7.622;2024-02-26T06:08:43;3.03;;;2.70;;
30743;SDS011;17486;46.738;7.622;2024-02-26T06:11:09;5.10;;;2.88;;
30743;SDS011;17486;46.738;7.622;2024-02-26T06:13:34;4.32;;;2.80;;
30743;SDS011;17486;46.738;7.622;2024-02-26T06:16:00;4.00;;;3.03;;
30743;SDS011;17486;46.738;7.622;2024-02-26T06:18:26;3.20;;;2.90;;
30743;SDS011;17486;46.738;7.622;2024-02-26T06:20:51;4.03;;;2.80;;
30743;SDS011;17486;46.738;7.622;2024-02-26T06:23:17;5.82;;;2.75;;
30743;SDS011;17486;46.738;7.622;2024-02-26T06:25:42;5.57;;;2.90;;
30743;SDS011;17486;46.738;7.622;2024-02-26T06:28:08;4.03;;;3.03;;
30743;SDS011;17486;46.738;7.622;2024-02-26T06:30:33;6.15;;;3.03;;
30743;SDS011;17486;46.738;7.622;2024-02-26T06:32:59;3.55;;;3.25;;
30743;SDS011;17486;46.738;7.622;2024-02-26T06:35:25;4.32;;;3.90;;
30743;SDS011;17486;46.738;7.622;2024-02-26T06:37:50;6.95;;;4.55;;
30743;SDS011;17486;46.738;7.622;2024-02-26T06:40:17;4.90;;;4.40;;
30743;SDS011;17486;46.738;7.622;2024-02-26T06:42:44;5.40;;;4.70;;
30743;SDS011;17486;46.738;7.622;2024-02-26T06:45:09;5.63;;;4.50;;
30743;SDS011;17486;46.738;7.622;2024-02-26T06:47:35;4.63;;;3.95;;
30743;SDS011;17486;46.738;7.622;2024-02-26T06:50:00;5.57;;;3.80;;
30743;SDS011;17486;46.738;7.622;2024-02-26T06:52:26;4.78;;;3.75;;
30743;SDS011;17486;46.738;7.622;2024-02-26T06:54:51;4.72;;;4.05;;
30743;SDS011;17486;46.738;7.622;2024-02-26T06:57:18;6.38;;;4.60;;
30743;SDS011;17486;46.738;7.622;2024-02-26T06:59:44;7.22;;;4.85;;
30743;SDS011;17486;46.738;7.622;2024-02-26T07:02:12;9.30;;;5.05;;
30743;SDS011;17486;46.738;7.622;2024-02-26T07:04:41;7.95;;;5.22;;
30743;SDS011;17486;46.738;7.622;2024-02-26T07:07:07;6.97;;;5.13;;
30743;SDS011;17486;46.738;7.622;2024-02-26T07:09:33;7.32;;;4.38;;
30743;SDS011;17486;46.738;7.622;2024-02-26T07:11:58;5.32;;;4.10;;
30743;SDS011;17486;46.738;7.622;2024-02-26T07:14:23;4.88;;;3.10;;
30743;SDS011;17486;46.738;7.622;2024-02-26T07:16:49;4.13;;;3.65;;
30743;SDS011;17486;46.738;7.622;2024-02-26T07:19:15;4.05;;;3.42;;
30743;SDS011;17486;46.738;7.622;2024-02-26T07:21:40;4.70;;;3.75;;
30743;SDS011;17486;46.738;7.622;2024-02-26T07:24:06;6.18;;;4.85;;
30743;SDS011;17486;46.738;7.622;2024-02-26T07:26:31;5.90;;;4.55;;
30743;SDS011;17486;46.738;7.622;2024-02-26T07:28:57;5.30;;;4.00;;
30743;SDS011;17486;46.738;7.622;2024-02-26T07:31:22;6.65;;;4.28;;
30743;SDS011;17486;46.738;7.622;2024-02-26T07:33:48;5.13;;;3.80;;
30743;SDS011;17486;46.738;7.622;2024-02-26T07:36:13;3.72;;;3.30;;
30743;SDS011;17486;46.738;7.622;2024-02-26T07:38:38;5.30;;;3.53;;
30743;SDS011;17486;46.738;7.622;2024-02-26T07:41:04;3.65;;;3.35;;
30743;SDS011;17486;46.738;7.622;2024-02-26T07:43:29;6.47;;;3.97;;
30743;SDS011;17486;46.738;7.622;2024-02-26T07:45:55;4.35;;;3.40;;
30743;SDS011;17486;46.738;7.622;2024-02-26T07:48:20;4.78;;;3.40;;
30743;SDS011;17486;46.738;7.622;2024-02-26T07:50:46;5.32;;;3.95;;
30743;SDS011;17486;46.738;7.622;2024-02-26T07:53:11;3.58;;;3.15;;
30743;SDS011;17486;46.738;7.622;2024-02-26T07:55:37;3.60;;;3.30;;
30743;SDS011;17486;46.738;7.622;2024-02-26T07:58:02;5.30;;;3.63;;
30743;SDS011;17486;46.738;7.622;2024-02-26T08:00:27;4.15;;;3.63;;
30743;SDS011;17486;46.738;7.622;2024-02-26T08:02:53;7.15;;;3.35;;
30743;SDS011;17486;46.738;7.622;2024-02-26T08:05:18;4.35;;;3.58;;
30743;SDS011;17486;46.738;7.622;2024-02-26T08:07:44;5.53;;;3.72;;
30743;SDS011;17486;46.738;7.622;2024-02-26T08:10:09;5.32;;;3.80;;
30743;SDS011;17486;46.738;7.622;2024-02-26T08:12:36;5.55;;;3.90;;
30743;SDS011;17486;46.738;7.622;2024-02-26T08:15:01;4.07;;;3.63;;
30743;SDS011;17486;46.738;7.622;2024-02-26T08:17:27;5.05;;;3.75;;
30743;SDS011;17486;46.738;7.622;2024-02-26T08:19:53;4.57;;;3.40;;
30743;SDS011;17486;46.738;7.622;2024-02-26T08:22:18;3.83;;;3.28;;
30743;SDS011;17486;46.738;7.622;2024-02-26T08:24:44;6.50;;;3.25;;
30743;SDS011;17486;46.738;7.622;2024-02-26T08:27:09;6.35;;;3.42;;
30743;SDS011;17486;46.738;7.622;2024-02-26T08:29:35;5.18;;;3.45;;
30743;SDS011;17486;46.738;7.622;2024-02-26T08:32:00;5.45;;;3.50;;
30743;SDS011;17486;46.738;7.622;2024-02-26T08:34:26;5.80;;;3.40;;
30743;SDS011;17486;46.738;7.622;2024-02-26T08:36:51;3.17;;;2.88;;
30743;SDS011;17486;46.738;7.622;2024-02-26T08:39:17;4.65;;;3.00;;
30743;SDS011;17486;46.738;7.622;2024-02-26T08:41:43;3.45;;;3.13;;
30743;SDS011;17486;46.738;7.622;2024-02-26T08:44:09;3.80;;;2.90;;
30743;SDS011;17486;46.738;7.622;2024-02-26T08:46:34;3.47;;;3.03;;
30743;SDS011;17486;46.738;7.622;2024-02-26T08:49:00;3.60;;;2.90;;
30743;SDS011;17486;46.738;7.622;2024-02-26T08:51:25;3.00;;;2.67;;
30743;SDS011;17486;46.738;7.622;2024-02-26T08:53:50;3.80;;;3.38;;
30743;SDS011;17486;46.738;7.622;2024-02-26T08:56:16;3.58;;;3.22;;
30743;SDS011;17486;46.738;7.622;2024-02-26T08:58:42;4.38;;;2.65;;
30743;SDS011;17486;46.738;7.622;2024-02-26T09:01:08;4.50;;;2.85;;
30743;SDS011;17486;46.738;7.622;2024-02-26T09:03:34;3.10;;;2.80;;
30743;SDS011;17486;46.738;7.622;2024-02-26T09:05:59;4.05;;;2.80;;
30743;SDS011;17486;46.738;7.622;2024-02-26T09:08:25;3.75;;;2.90;;
30743;SDS011;17486;46.738;7.622;2024-02-26T09:10:50;2.72;;;2.53;;
30743;SDS011;17486;46.738;7.622;2024-02-26T09:13:16;5.55;;;3.17;;
30743;SDS011;17486;46.738;7.622;2024-02-26T09:15:41;3.55;;;3.25;;
30743;SDS011;17486;46.738;7.622;2024-02-26T09:18:06;3.70;;;3.40;;
30743;SDS011;17486;46.738;7.622;2024-02-26T09:20:32;4.88;;;3.08;;
30743;SDS011;17486;46.738;7.622;2024-02-26T09:22:57;2.83;;;2.63;;
30743;SDS011;17486;46.738;7.622;2024-02-26T09:25:22;3.40;;;2.83;;
30743;SDS011;17486;46.738;7.622;2024-02-26T09:27:48;3.30;;;3.00;;
30743;SDS011;17486;46.738;7.622;2024-02-26T09:30:13;3.78;;;2.97;;
30743;SDS011;17486;46.738;7.622;2024-02-26T09:32:39;3.45;;;3.00;;
30743;SDS011;17486;46.738;7.622;2024-02-26T09:35:05;2.97;;;2.65;;
30743;SDS011;17486;46.738;7.622;2024-02-26T09:37:31;3.70;;;2.53;;
30743;SDS011;17486;46.738;7.622;2024-02-26T09:39:57;2.70;;;2.50;;
30743;SDS011;17486;46.738;7.622;2024-02-26T09:42:25;2.75;;;2.47;;
30743;SDS011;17486;46.738;7.622;2024-02-26T09:44:51;3.03;;;2.72;;
30743;SDS011;17486;46.738;7.622;2024-02-26T09:47:19;3.10;;;2.80;;
30743;SDS011;17486;46.738;7.622;2024-02-26T09:49:46;6.45;;;3.28;;
30743;SDS011;17486;46.738;7.622;2024-02-26T09:52:12;2.85;;;2.58;;
30743;SDS011;17486;46.738;7.622;2024-02-26T09:54:40;5.90;;;2.78;;
30743;SDS011;17486;46.738;7.622;2024-02-26T09:57:06;2.72;;;2.53;;
30743;SDS011;17486;46.738;7.622;2024-02-26T09:59:40;3.20;;;2.60;;
30743;SDS011;17486;46.738;7.622;2024-02-26T10:02:08;2.60;;;2.40;;
30743;SDS011;17486;46.738;7.622;2024-02-26T10:04:36;3.05;;;2.75;;
30743;SDS011;17486;46.738;7.622;2024-02-26T10:07:03;3.58;;;2.80;;
30743;SDS011;17486;46.738;7.622;2024-02-26T10:09:30;4.30;;;2.83;;
30743;SDS011;17486;46.738;7.622;2024-02-26T10:11:56;5.75;;;3.03;;
30743;SDS011;17486;46.738;7.622;2024-02-26T10:14:22;4.35;;;3.08;;
30743;SDS011;17486;46.738;7.622;2024-02-26T10:16:48;3.88;;;2.85;;
30743;SDS011;17486;46.738;7.622;2024-02-26T10:19:27;5.03;;;3.13;;
30743;SDS011;17486;46.738;7.622;2024-02-26T10:21:57;5.88;;;2.80;;
30743;SDS011;17486;46.738;7.622;2024-02-26T10:24:24;4.28;;;2.80;;
30743;SDS011;17486;46.738;7.622;2024-02-26T10:26:50;3.28;;;2.97;;
30743;SDS011;17486;46.738;7.622;2024-02-26T10:29:17;2.70;;;2.50;;
30743;SDS011;17486;46.738;7.622;2024-02-26T10:31:43;3.10;;;2.63;;
30743;SDS011;17486;46.738;7.622;2024-02-26T10:34:09;2.78;;;2.58;;
30743;SDS011;17486;46.738;7.622;2024-02-26T10:36:35;3.30;;;2.60;;
30743;SDS011;17486;46.738;7.622;2024-02-26T10:39:02;3.40;;;2.72;;
30743;SDS011;17486;46.738;7.622;2024-02-26T10:41:29;3.05;;;2.72;;
30743;SDS011;17486;46.738;7.622;2024-02-26T10:43:55;3.22;;;2.92;;
30743;SDS011;17486;46.738;7.622;2024-02-26T10:46:20;3.92;;;2.95;;
30743;SDS011;17486;46.738;7.622;2024-02-26T10:48:52;3.15;;;2.78;;
30743;SDS011;17486;46.738;7.622;2024-02-26T10:51:28;3.40;;;3.05;;
30743;SDS011;17486;46.738;7.622;2024-02-26T10:53:55;3.35;;;2.75;;
30743;SDS011;17486;46.738;7.622;2024-02-26T10:56:26;4.22;;;2.58;;
30743;SDS011;17486;46.738;7.622;2024-02-26T10:58:55;3.13;;;2.80;;
30743;SDS011;17486;46.738;7.622;2024-02-26T11:01:21;4.00;;;2.72;;
30743;SDS011;17486;46.738;7.622;2024-02-26T11:03:53;3.88;;;2.83;;
30743;SDS011;17486;46.738;7.622;2024-02-26T11:06:19;4.32;;;2.50;;
30743;SDS011;17486;46.738;7.622;2024-02-26T11:08:49;6.45;;;3.20;;
30743;SDS011;17486;46.738;7.622;2024-02-26T11:11:16;3.83;;;3.05;;
30743;SDS011;17486;46.738;7.622;2024-02-26T11:13:44;4.35;;;2.75;;
30743;SDS011;17486;46.738;7.622;2024-02-26T11:16:14;2.40;;;2.17;;
30743;SDS011;17486;46.738;7.622;2024-02-26T11:18:41;4.10;;;3.00;;
30743;SDS011;17486;46.738;7.622;2024-02-26T11:21:07;4.25;;;2.70;;
30743;SDS011;17486;46.738;7.622;2024-02-26T11:23:36;3.17;;;2.65;;
30743;SDS011;17486;46.738;7.622;2024-02-26T11:26:02;2.70;;;2.40;;
30743;SDS011;17486;46.738;7.622;2024-02-26T11:28:31;3.55;;;2.45;;
30743;SDS011;17486;46.738;7.622;2024-02-26T11:30:58;3.20;;;2.40;;
30743;SDS011;17486;46.738;7.622;2024-02-26T11:33:25;4.40;;;2.53;;
30743;SDS011;17486;46.738;7.622;2024-02-26T11:35:52;3.00;;;2.70;;
30743;SDS011;17486;46.738;7.622;2024-02-26T11:38:22;2.72;;;2.35;;
30743;SDS011;17486;46.738;7.622;2024-02-26T11:40:49;3.00;;;2.53;;
30743;SDS011;17486;46.738;7.622;2024-02-26T11:43:15;3.00;;;2.67;;
30743;SDS011;17486;46.738;7.622;2024-02-26T11:48:14;4.72;;;2.47;;
30743;SDS011;17486;46.738;7.622;2024-02-26T11:50:50;2.47;;;2.22;;
30743;SDS011;17486;46.738;7.622;2024-02-26T11:55:45;2.20;;;1.83;;
30743;SDS011;17486;46.738;7.622;2024-02-26T11:58:11;3.80;;;2.10;;
30743;SDS011;17486;46.738;7.622;2024-02-26T12:00:36;2.22;;;2.00;;
30743;SDS011;17486;46.738;7.622;2024-02-26T12:03:05;2.00;;;1.80;;
30743;SDS011;17486;46.738;7.622;2024-02-26T12:05:33;2.20;;;2.00;;
30743;SDS011;17486;46.738;7.622;2024-02-26T12:08:05;2.00;;;1.85;;
30743;SDS011;17486;46.738;7.622;2024-02-26T12:10:34;2.40;;;1.70;;
30743;SDS011;17486;46.738;7.622;2024-02-26T12:18:22;2.50;;;2.03;;
30743;SDS011;17486;46.738;7.622;2024-02-26T12:21:00;2.60;;;2.10;;
30743;SDS011;17486;46.738;7.622;2024-02-26T12:23:27;3.55;;;1.88;;
30743;SDS011;17486;46.738;7.622;2024-02-26T12:25:53;1.90;;;1.77;;
30743;SDS011;17486;46.738;7.622;2024-02-26T12:28:23;1.90;;;1.80;;
30743;SDS011;17486;46.738;7.622;2024-02-26T12:30:52;2.55;;;2.03;;
30743;SDS011;17486;46.738;7.622;2024-02-26T12:33:17;1.88;;;1.77;;
30743;SDS011;17486;46.738;7.622;2024-02-26T12:35:43;1.73;;;1.63;;
30743;SDS011;17486;46.738;7.622;2024-02-26T12:38:12;3.15;;;2.08;;
30743;SDS011;17486;46.738;7.622;2024-02-26T12:40:40;2.22;;;1.67;;
30743;SDS011;17486;46.738;7.622;2024-02-26T12:43:05;2.28;;;1.88;;
30743;SDS011;17486;46.738;7.622;2024-02-26T12:45:31;2.80;;;1.60;;
30743;SDS011;17486;46.738;7.622;2024-02-26T12:47:57;1.80;;;1.70;;
30743;SDS011;17486;46.738;7.622;2024-02-26T12:50:24;1.65;;;1.50;;
30743;SDS011;17486;46.738;7.622;2024-02-26T12:52:49;2.15;;;1.50;;
30743;SDS011;17486;46.738;7.622;2024-02-26T12:55:17;3.97;;;1.70;;
30743;SDS011;17486;46.738;7.622;2024-02-26T12:57:44;1.77;;;1.45;;
30743;SDS011;17486;46.738;7.622;2024-02-26T13:00:15;1.90;;;1.80;;
30743;SDS011;17486;46.738;7.622;2024-02-26T13:02:42;1.85;;;1.75;;
30743;SDS011;17486;46.738;7.622;2024-02-26T13:05:10;2.28;;;1.67;;
30743;SDS011;17486;46.738;7.622;2024-02-26T13:07:40;2.00;;;1.80;;
30743;SDS011;17486;46.738;7.622;2024-02-26T13:10:11;1.67;;;1.40;;
30743;SDS011;17486;46.738;7.622;2024-02-26T13:12:37;1.67;;;1.58;;
30743;SDS011;17486;46.738;7.622;2024-02-26T13:15:07;3.10;;;1.90;;
30743;SDS011;17486;46.738;7.622;2024-02-26T13:17:38;1.90;;;1.75;;
30743;SDS011;17486;46.738;7.622;2024-02-26T13:20:04;1.63;;;1.50;;
30743;SDS011;17486;46.738;7.622;2024-02-26T13:22:30;2.20;;;1.65;;
30743;SDS011;17486;46.738;7.622;2024-02-26T13:24:58;1.63;;;1.52;;
30743;SDS011;17486;46.738;7.622;2024-02-26T13:27:24;1.75;;;1.63;;
30743;SDS011;17486;46.738;7.622;2024-02-26T13:30:09;2.35;;;1.50;;
30743;SDS011;17486;46.738;7.622;2024-02-26T13:32:37;1.33;;;1.23;;
30743;SDS011;17486;46.738;7.622;2024-02-26T13:35:11;1.40;;;1.30;;
30743;SDS011;17486;46.738;7.622;2024-02-26T13:37:37;2.15;;;1.30;;
30743;SDS011;17486;46.738;7.622;2024-02-26T13:40:04;2.55;;;1.33;;
30743;SDS011;17486;46.738;7.622;2024-02-26T13:42:38;3.47;;;1.50;;
30743;SDS011;17486;46.738;7.622;2024-02-26T13:45:04;1.52;;;1.25;;
30743;SDS011;17486;46.738;7.622;2024-02-26T13:47:33;1.42;;;1.15;;
30743;SDS011;17486;46.738;7.622;2024-02-26T13:49:59;1.63;;;1.52;;
30743;SDS011;17486;46.738;7.622;2024-02-26T13:52:25;1.17;;;1.08;;
30743;SDS011;17486;46.738;7.622;2024-02-26T13:54:51;1.55;;;1.23;;
30743;SDS011;17486;46.738;7.622;2024-02-26T13:57:17;1.65;;;1.30;;
30743;SDS011;17486;46.738;7.622;2024-02-26T13:59:43;2.80;;;1.70;;
30743;SDS011;17486;46.738;7.622;2024-02-26T14:02:08;3.97;;;1.50;;
30743;SDS011;17486;46.738;7.622;2024-02-26T14:04:34;2.35;;;1.63;;
30743;SDS011;17486;46.738;7.622;2024-02-26T14:07:01;1.88;;;1.30;;
30743;SDS011;17486;46.738;7.622;2024-02-26T14:09:26;1.67;;;1.40;;
30743;SDS011;17486;46.738;7.622;2024-02-26T14:11:52;1.45;;;1.05;;
30743;SDS011;17486;46.738;7.622;2024-02-26T14:14:17;1.45;;;1.35;;
30743;SDS011;17486;46.738;7.622;2024-02-26T14:16:43;2.17;;;1.42;;
30743;SDS011;17486;46.738;7.622;2024-02-26T14:19:08;2.22;;;1.70;;
30743;SDS011;17486;46.738;7.622;2024-02-26T14:21:33;1.63;;;1.40;;
30743;SDS011;17486;46.738;7.622;2024-02-26T14:24:00;3.58;;;1.70;;
30743;SDS011;17486;46.738;7.622;2024-02-26T14:26:25;2.20;;;1.70;;
30743;SDS011;17486;46.738;7.622;2024-02-26T14:28:50;3.42;;;1.90;;
30743;SDS011;17486;46.738;7.622;2024-02-26T14:31:19;1.85;;;1.70;;
30743;SDS011;17486;46.738;7.622;2024-02-26T14:33:44;2.38;;;2.17;;
30743;SDS011;17486;46.738;7.622;2024-02-26T14:36:10;3.22;;;1.77;;
30743;SDS011;17486;46.738;7.622;2024-02-26T14:38:36;2.38;;;1.70;;
30743;SDS011;17486;46.738;7.622;2024-02-26T14:41:02;1.92;;;1.52;;
30743;SDS011;17486;46.738;7.622;2024-02-26T14:43:28;2.80;;;1.80;;
30743;SDS011;17486;46.738;7.622;2024-02-26T14:45:54;2.08;;;1.90;;
30743;SDS011;17486;46.738;7.622;2024-02-26T14:48:19;2.08;;;1.85;;
30743;SDS011;17486;46.738;7.622;2024-02-26T14:50:45;2.80;;;2.03;;
30743;SDS011;17486;46.738;7.622;2024-02-26T14:53:10;2.00;;;1.80;;